sensor_id;sensor_type;location;lat;lon;timestamp;temperature;humidity
55634;DHT22;41504;53.162;6.788;2023-02-11T00:02:02;6.90;89.90
55634;DHT22;41504;53.162;6.788;2023-02-11T00:04:30;7.00;90.00
55634;DHT22;41504;53.162;6.788;2023-02-11T00:06:56;6.90;90.00
55634;DHT22;41504;53.162;6.788;2023-02-11T00:09:22;6.90;90.00
55634;DHT22;41504;53.162;6.788;2023-02-11T00:11:47;6.90;90.00
55634;DHT22;41504;53.162;6.788;2023-02-11T00:14:13;7.00;90.10
55634;DHT22;41504;53.162;6.788;2023-02-11T00:16:39;7.00;90.10
55634;DHT22;41504;53.162;6.788;2023-02-11T00:19:05;7.00;90.10
55634;DHT22;41504;53.162;6.788;2023-02-11T00:21:32;7.00;90.10
55634;DHT22;41504;53.162;6.788;2023-02-11T00:23:58;7.00;90.10
55634;DHT22;41504;53.162;6.788;2023-02-11T00:26:29;7.00;90.20
55634;DHT22;41504;53.162;6.788;2023-02-11T00:28:55;7.00;90.10
55634;DHT22;41504;53.162;6.788;2023-02-11T00:31:22;7.00;90.20
55634;DHT22;41504;53.162;6.788;2023-02-11T00:33:49;7.00;90.20
55634;DHT22;41504;53.162;6.788;2023-02-11T00:36:20;6.90;90.20
55634;DHT22;41504;53.162;6.788;2023-02-11T00:38:47;7.00;90.20
55634;DHT22;41504;53.162;6.788;2023-02-11T00:41:15;7.00;90.20
55634;DHT22;41504;53.162;6.788;2023-02-11T00:43:41;7.00;90.20
55634;DHT22;41504;53.162;6.788;2023-02-11T00:46:07;7.00;90.30
55634;DHT22;41504;53.162;6.788;2023-02-11T00:48:33;7.00;90.30
55634;DHT22;41504;53.162;6.788;2023-02-11T00:50:59;7.00;90.30
55634;DHT22;41504;53.162;6.788;2023-02-11T00:53:25;6.90;90.40
55634;DHT22;41504;53.162;6.788;2023-02-11T00:55:51;6.90;90.60
55634;DHT22;41504;53.162;6.788;2023-02-11T00:58:17;6.90;90.50
55634;DHT22;41504;53.162;6.788;2023-02-11T01:00:42;6.90;90.50
55634;DHT22;41504;53.162;6.788;2023-02-11T01:03:08;7.00;90.60
55634;DHT22;41504;53.162;6.788;2023-02-11T01:05:34;7.00;90.50
55634;DHT22;41504;53.162;6.788;2023-02-11T01:07:59;7.00;90.60
55634;DHT22;41504;53.162;6.788;2023-02-11T01:10:25;7.00;90.60
55634;DHT22;41504;53.162;6.788;2023-02-11T01:12:51;7.00;90.80
55634;DHT22;41504;53.162;6.788;2023-02-11T01:15:18;7.00;90.70
55634;DHT22;41504;53.162;6.788;2023-02-11T01:17:44;7.10;90.70
55634;DHT22;41504;53.162;6.788;2023-02-11T01:20:17;7.10;90.70
55634;DHT22;41504;53.162;6.788;2023-02-11T01:22:43;7.10;90.70
55634;DHT22;41504;53.162;6.788;2023-02-11T01:25:09;7.10;90.70
55634;DHT22;41504;53.162;6.788;2023-02-11T01:27:36;7.00;90.70
55634;DHT22;41504;53.162;6.788;2023-02-11T01:30:03;7.00;90.80
55634;DHT22;41504;53.162;6.788;2023-02-11T01:32:28;7.00;90.80
55634;DHT22;41504;53.162;6.788;2023-02-11T01:34:54;7.00;90.90
55634;DHT22;41504;53.162;6.788;2023-02-11T01:37:20;7.00;90.90
55634;DHT22;41504;53.162;6.788;2023-02-11T01:39:45;7.00;90.90
55634;DHT22;41504;53.162;6.788;2023-02-11T01:42:15;7.00;91.00
55634;DHT22;41504;53.162;6.788;2023-02-11T01:44:41;7.00;91.00
55634;DHT22;41504;53.162;6.788;2023-02-11T01:47:07;6.90;91.10
55634;DHT22;41504;53.162;6.788;2023-02-11T01:49:35;7.00;91.20
55634;DHT22;41504;53.162;6.788;2023-02-11T01:52:08;7.00;91.20
55634;DHT22;41504;53.162;6.788;2023-02-11T01:54:47;7.00;91.30
55634;DHT22;41504;53.162;6.788;2023-02-11T01:57:34;7.00;91.30
55634;DHT22;41504;53.162;6.788;2023-02-11T02:00:21;7.00;91.20
55634;DHT22;41504;53.162;6.788;2023-02-11T02:03:07;7.00;91.20
55634;DHT22;41504;53.162;6.788;2023-02-11T02:09:01;7.00;91.30
55634;DHT22;41504;53.162;6.788;2023-02-11T02:11:28;7.00;91.30
55634;DHT22;41504;53.162;6.788;2023-02-11T02:13:53;7.00;91.40
55634;DHT22;41504;53.162;6.788;2023-02-11T02:16:21;7.00;91.40
55634;DHT22;41504;53.162;6.788;2023-02-11T02:30:55;6.90;91.60
55634;DHT22;41504;53.162;6.788;2023-02-11T02:39:07;6.70;91.70
55634;DHT22;41504;53.162;6.788;2023-02-11T02:41:34;6.80;91.80
55634;DHT22;41504;53.162;6.788;2023-02-11T02:44:01;6.70;91.80
55634;DHT22;41504;53.162;6.788;2023-02-11T02:46:30;6.80;91.90
55634;DHT22;41504;53.162;6.788;2023-02-11T02:48:57;6.80;91.90
55634;DHT22;41504;53.162;6.788;2023-02-11T03:06:00;6.70;92.10
55634;DHT22;41504;53.162;6.788;2023-02-11T03:08:45;6.80;92.20
55634;DHT22;41504;53.162;6.788;2023-02-11T03:11:16;6.80;92.20
55634;DHT22;41504;53.162;6.788;2023-02-11T03:13:43;6.80;92.30
55634;DHT22;41504;53.162;6.788;2023-02-11T03:16:17;6.80;92.30
55634;DHT22;41504;53.162;6.788;2023-02-11T03:18:49;6.80;92.50
55634;DHT22;41504;53.162;6.788;2023-02-11T03:21:17;6.80;92.40
55634;DHT22;41504;53.162;6.788;2023-02-11T03:23:55;6.80;92.40
55634;DHT22;41504;53.162;6.788;2023-02-11T03:26:39;6.80;92.40
55634;DHT22;41504;53.162;6.788;2023-02-11T03:31:58;6.80;92.50
55634;DHT22;41504;53.162;6.788;2023-02-11T03:37:06;6.90;92.70
55634;DHT22;41504;53.162;6.788;2023-02-11T03:39:39;6.90;92.70
55634;DHT22;41504;53.162;6.788;2023-02-11T03:42:08;6.90;92.60
55634;DHT22;41504;53.162;6.788;2023-02-11T03:44:46;6.90;92.60
55634;DHT22;41504;53.162;6.788;2023-02-11T03:47:14;6.90;92.70
55634;DHT22;41504;53.162;6.788;2023-02-11T03:49:44;6.90;92.80
55634;DHT22;41504;53.162;6.788;2023-02-11T03:52:13;6.90;92.80
55634;DHT22;41504;53.162;6.788;2023-02-11T03:54:40;6.90;92.70
55634;DHT22;41504;53.162;6.788;2023-02-11T03:57:08;7.00;92.80
55634;DHT22;41504;53.162;6.788;2023-02-11T03:59:49;7.00;92.80
55634;DHT22;41504;53.162;6.788;2023-02-11T04:02:15;7.00;92.80
55634;DHT22;41504;53.162;6.788;2023-02-11T04:04:41;7.00;92.90
55634;DHT22;41504;53.162;6.788;2023-02-11T04:07:07;7.00;92.90
55634;DHT22;41504;53.162;6.788;2023-02-11T04:09:33;7.00;92.90
55634;DHT22;41504;53.162;6.788;2023-02-11T04:12:00;7.00;92.90
55634;DHT22;41504;53.162;6.788;2023-02-11T04:14:26;7.00;93.00
55634;DHT22;41504;53.162;6.788;2023-02-11T04:16:51;7.00;92.90
55634;DHT22;41504;53.162;6.788;2023-02-11T04:19:17;7.00;92.90
55634;DHT22;41504;53.162;6.788;2023-02-11T04:21:43;7.00;93.00
55634;DHT22;41504;53.162;6.788;2023-02-11T04:24:08;7.00;93.00
55634;DHT22;41504;53.162;6.788;2023-02-11T04:26:34;7.10;93.10
55634;DHT22;41504;53.162;6.788;2023-02-11T04:29:00;7.10;93.10
55634;DHT22;41504;53.162;6.788;2023-02-11T04:31:25;7.10;93.10
55634;DHT22;41504;53.162;6.788;2023-02-11T04:33:51;7.10;93.20
55634;DHT22;41504;53.162;6.788;2023-02-11T04:36:17;7.10;93.10
55634;DHT22;41504;53.162;6.788;2023-02-11T04:38:42;7.20;93.10
55634;DHT22;41504;53.162;6.788;2023-02-11T04:41:08;7.20;93.20
55634;DHT22;41504;53.162;6.788;2023-02-11T04:43:34;7.20;93.20
55634;DHT22;41504;53.162;6.788;2023-02-11T04:45:59;7.20;93.20
55634;DHT22;41504;53.162;6.788;2023-02-11T04:48:25;7.20;93.10
55634;DHT22;41504;53.162;6.788;2023-02-11T04:50:51;7.30;93.20
55634;DHT22;41504;53.162;6.788;2023-02-11T04:53:16;7.20;93.10
55634;DHT22;41504;53.162;6.788;2023-02-11T04:55:42;7.20;93.20
55634;DHT22;41504;53.162;6.788;2023-02-11T04:58:08;7.20;93.20
55634;DHT22;41504;53.162;6.788;2023-02-11T05:00:33;7.20;93.20
55634;DHT22;41504;53.162;6.788;2023-02-11T05:02:59;7.20;93.20
55634;DHT22;41504;53.162;6.788;2023-02-11T05:05:25;7.30;93.20
55634;DHT22;41504;53.162;6.788;2023-02-11T05:07:50;7.30;93.20
55634;DHT22;41504;53.162;6.788;2023-02-11T05:10:16;7.30;93.30
55634;DHT22;41504;53.162;6.788;2023-02-11T05:12:42;7.30;93.20
55634;DHT22;41504;53.162;6.788;2023-02-11T05:15:07;7.20;93.20
55634;DHT22;41504;53.162;6.788;2023-02-11T05:17:33;7.30;93.30
55634;DHT22;41504;53.162;6.788;2023-02-11T05:19:59;7.30;93.30
55634;DHT22;41504;53.162;6.788;2023-02-11T05:22:24;7.30;93.40
55634;DHT22;41504;53.162;6.788;2023-02-11T05:24:50;7.30;93.40
55634;DHT22;41504;53.162;6.788;2023-02-11T05:27:16;7.30;93.30
55634;DHT22;41504;53.162;6.788;2023-02-11T05:29:41;7.30;93.40
55634;DHT22;41504;53.162;6.788;2023-02-11T05:32:07;7.30;93.40
55634;DHT22;41504;53.162;6.788;2023-02-11T05:34:34;7.30;93.40
55634;DHT22;41504;53.162;6.788;2023-02-11T05:37:00;7.30;93.40
55634;DHT22;41504;53.162;6.788;2023-02-11T05:39:26;7.30;93.40
55634;DHT22;41504;53.162;6.788;2023-02-11T05:41:51;7.30;93.40
55634;DHT22;41504;53.162;6.788;2023-02-11T05:44:17;7.30;93.40
55634;DHT22;41504;53.162;6.788;2023-02-11T05:46:43;7.30;93.40
55634;DHT22;41504;53.162;6.788;2023-02-11T05:49:08;7.30;93.40
55634;DHT22;41504;53.162;6.788;2023-02-11T05:51:34;7.20;93.40
55634;DHT22;41504;53.162;6.788;2023-02-11T05:54:00;7.20;93.50
55634;DHT22;41504;53.162;6.788;2023-02-11T05:56:25;7.20;93.50
55634;DHT22;41504;53.162;6.788;2023-02-11T05:58:51;7.20;93.70
55634;DHT22;41504;53.162;6.788;2023-02-11T06:01:17;7.20;93.50
55634;DHT22;41504;53.162;6.788;2023-02-11T06:03:42;7.20;93.50
55634;DHT22;41504;53.162;6.788;2023-02-11T06:06:10;7.20;93.50
55634;DHT22;41504;53.162;6.788;2023-02-11T06:08:36;7.20;93.50
55634;DHT22;41504;53.162;6.788;2023-02-11T06:11:02;7.20;93.60
55634;DHT22;41504;53.162;6.788;2023-02-11T06:13:27;7.10;93.60
55634;DHT22;41504;53.162;6.788;2023-02-11T06:15:57;7.20;93.60
55634;DHT22;41504;53.162;6.788;2023-02-11T06:18:23;7.20;93.60
55634;DHT22;41504;53.162;6.788;2023-02-11T06:20:49;7.20;93.60
55634;DHT22;41504;53.162;6.788;2023-02-11T06:23:15;7.20;93.60
55634;DHT22;41504;53.162;6.788;2023-02-11T06:25:40;7.10;93.60
55634;DHT22;41504;53.162;6.788;2023-02-11T06:28:06;7.10;93.60
55634;DHT22;41504;53.162;6.788;2023-02-11T06:30:32;7.10;93.50
55634;DHT22;41504;53.162;6.788;2023-02-11T06:32:58;7.00;93.50
55634;DHT22;41504;53.162;6.788;2023-02-11T06:35:24;7.00;93.60
55634;DHT22;41504;53.162;6.788;2023-02-11T06:37:49;7.00;93.60
55634;DHT22;41504;53.162;6.788;2023-02-11T06:40:18;7.00;93.60
55634;DHT22;41504;53.162;6.788;2023-02-11T06:42:44;7.00;93.60
55634;DHT22;41504;53.162;6.788;2023-02-11T06:45:10;6.90;93.70
55634;DHT22;41504;53.162;6.788;2023-02-11T06:47:38;6.90;93.70
55634;DHT22;41504;53.162;6.788;2023-02-11T06:50:05;6.90;93.80
55634;DHT22;41504;53.162;6.788;2023-02-11T06:52:32;6.90;93.70
55634;DHT22;41504;53.162;6.788;2023-02-11T06:54:58;6.90;93.80
55634;DHT22;41504;53.162;6.788;2023-02-11T06:57:23;6.90;93.80
55634;DHT22;41504;53.162;6.788;2023-02-11T06:59:49;6.90;93.80
55634;DHT22;41504;53.162;6.788;2023-02-11T07:02:16;6.90;93.80
55634;DHT22;41504;53.162;6.788;2023-02-11T07:04:41;7.00;93.80
55634;DHT22;41504;53.162;6.788;2023-02-11T07:07:07;6.90;93.80
55634;DHT22;41504;53.162;6.788;2023-02-11T07:09:33;7.00;93.90
55634;DHT22;41504;53.162;6.788;2023-02-11T07:11:58;7.00;93.90
55634;DHT22;41504;53.162;6.788;2023-02-11T07:14:24;7.00;93.90
55634;DHT22;41504;53.162;6.788;2023-02-11T07:16:50;7.00;93.90
55634;DHT22;41504;53.162;6.788;2023-02-11T07:19:16;7.00;93.90
55634;DHT22;41504;53.162;6.788;2023-02-11T07:21:41;7.00;93.90
55634;DHT22;41504;53.162;6.788;2023-02-11T07:24:08;7.00;93.90
55634;DHT22;41504;53.162;6.788;2023-02-11T07:26:35;7.10;93.90
55634;DHT22;41504;53.162;6.788;2023-02-11T07:29:01;7.00;93.90
55634;DHT22;41504;53.162;6.788;2023-02-11T07:31:28;7.10;93.90
55634;DHT22;41504;53.162;6.788;2023-02-11T07:33:57;7.00;93.80
55634;DHT22;41504;53.162;6.788;2023-02-11T07:36:24;7.00;93.80
55634;DHT22;41504;53.162;6.788;2023-02-11T07:38:50;7.10;93.90
55634;DHT22;41504;53.162;6.788;2023-02-11T07:41:18;7.10;93.90
55634;DHT22;41504;53.162;6.788;2023-02-11T07:43:44;7.10;93.90
55634;DHT22;41504;53.162;6.788;2023-02-11T07:46:19;7.10;93.90
55634;DHT22;41504;53.162;6.788;2023-02-11T07:48:45;7.10;93.90
55634;DHT22;41504;53.162;6.788;2023-02-11T07:51:12;7.10;93.90
55634;DHT22;41504;53.162;6.788;2023-02-11T07:53:38;7.10;93.80
55634;DHT22;41504;53.162;6.788;2023-02-11T07:56:06;7.10;93.90
55634;DHT22;41504;53.162;6.788;2023-02-11T07:58:32;7.10;93.90
55634;DHT22;41504;53.162;6.788;2023-02-11T08:01:07;7.10;93.90
55634;DHT22;41504;53.162;6.788;2023-02-11T08:03:34;7.10;93.90
55634;DHT22;41504;53.162;6.788;2023-02-11T08:06:08;7.10;93.90
55634;DHT22;41504;53.162;6.788;2023-02-11T08:08:34;7.10;93.90
55634;DHT22;41504;53.162;6.788;2023-02-11T08:11:11;7.10;93.90
55634;DHT22;41504;53.162;6.788;2023-02-11T08:13:37;7.10;93.90
55634;DHT22;41504;53.162;6.788;2023-02-11T08:16:04;7.20;93.90
55634;DHT22;41504;53.162;6.788;2023-02-11T08:18:31;7.20;93.90
55634;DHT22;41504;53.162;6.788;2023-02-11T08:21:06;7.20;93.90
55634;DHT22;41504;53.162;6.788;2023-02-11T08:23:32;7.20;93.90
55634;DHT22;41504;53.162;6.788;2023-02-11T08:26:06;7.20;93.90
55634;DHT22;41504;53.162;6.788;2023-02-11T08:28:37;7.30;93.90
55634;DHT22;41504;53.162;6.788;2023-02-11T08:31:18;7.30;93.90
55634;DHT22;41504;53.162;6.788;2023-02-11T08:33:44;7.30;93.90
55634;DHT22;41504;53.162;6.788;2023-02-11T08:36:20;7.40;93.90
55634;DHT22;41504;53.162;6.788;2023-02-11T08:38:46;7.40;93.80
55634;DHT22;41504;53.162;6.788;2023-02-11T08:41:12;7.40;93.80
55634;DHT22;41504;53.162;6.788;2023-02-11T08:43:42;7.40;93.80
55634;DHT22;41504;53.162;6.788;2023-02-11T08:46:12;7.40;93.80
55634;DHT22;41504;53.162;6.788;2023-02-11T08:48:38;7.40;93.80
55634;DHT22;41504;53.162;6.788;2023-02-11T08:51:09;7.50;93.80
55634;DHT22;41504;53.162;6.788;2023-02-11T08:53:35;7.50;93.80
55634;DHT22;41504;53.162;6.788;2023-02-11T08:56:01;7.50;93.70
55634;DHT22;41504;53.162;6.788;2023-02-11T08:58:27;7.50;93.70
55634;DHT22;41504;53.162;6.788;2023-02-11T09:00:53;7.60;93.70
55634;DHT22;41504;53.162;6.788;2023-02-11T09:03:18;7.60;93.70
55634;DHT22;41504;53.162;6.788;2023-02-11T09:05:46;7.70;93.70
55634;DHT22;41504;53.162;6.788;2023-02-11T09:08:13;7.60;93.60
55634;DHT22;41504;53.162;6.788;2023-02-11T09:10:39;7.70;93.60
55634;DHT22;41504;53.162;6.788;2023-02-11T09:13:05;7.70;93.60
55634;DHT22;41504;53.162;6.788;2023-02-11T09:15:32;7.70;93.60
55634;DHT22;41504;53.162;6.788;2023-02-11T09:17:58;7.70;93.60
55634;DHT22;41504;53.162;6.788;2023-02-11T09:20:24;7.70;93.60
55634;DHT22;41504;53.162;6.788;2023-02-11T09:22:52;7.70;93.60
55634;DHT22;41504;53.162;6.788;2023-02-11T09:25:18;7.80;93.60
55634;DHT22;41504;53.162;6.788;2023-02-11T09:27:44;7.80;93.60
55634;DHT22;41504;53.162;6.788;2023-02-11T09:30:10;7.80;93.60
55634;DHT22;41504;53.162;6.788;2023-02-11T09:32:36;7.80;93.60
55634;DHT22;41504;53.162;6.788;2023-02-11T09:35:02;7.90;93.50
55634;DHT22;41504;53.162;6.788;2023-02-11T09:37:28;7.80;93.50
55634;DHT22;41504;53.162;6.788;2023-02-11T09:39:53;7.90;93.50
55634;DHT22;41504;53.162;6.788;2023-02-11T09:42:48;7.90;93.50
55634;DHT22;41504;53.162;6.788;2023-02-11T09:45:21;7.90;93.50
55634;DHT22;41504;53.162;6.788;2023-02-11T09:47:55;7.90;93.40
55634;DHT22;41504;53.162;6.788;2023-02-11T09:50:33;7.90;93.30
55634;DHT22;41504;53.162;6.788;2023-02-11T09:55:46;8.00;93.30
55634;DHT22;41504;53.162;6.788;2023-02-11T09:58:20;8.00;93.20
55634;DHT22;41504;53.162;6.788;2023-02-11T10:08:52;8.20;93.10
55634;DHT22;41504;53.162;6.788;2023-02-11T10:11:40;8.20;93.10
55634;DHT22;41504;53.162;6.788;2023-02-11T10:17:05;8.30;93.00
55634;DHT22;41504;53.162;6.788;2023-02-11T10:19:54;8.40;92.90
55634;DHT22;41504;53.162;6.788;2023-02-11T10:22:31;8.40;92.80
55634;DHT22;41504;53.162;6.788;2023-02-11T10:24:58;8.40;92.80
55634;DHT22;41504;53.162;6.788;2023-02-11T10:27:32;8.50;92.70
55634;DHT22;41504;53.162;6.788;2023-02-11T10:30:22;8.50;92.80
55634;DHT22;41504;53.162;6.788;2023-02-11T10:33:17;8.60;92.70
55634;DHT22;41504;53.162;6.788;2023-02-11T10:35:44;8.70;92.70
55634;DHT22;41504;53.162;6.788;2023-02-11T10:38:11;8.80;92.70
55634;DHT22;41504;53.162;6.788;2023-02-11T10:40:37;8.70;92.60
55634;DHT22;41504;53.162;6.788;2023-02-11T10:43:05;8.80;92.50
55634;DHT22;41504;53.162;6.788;2023-02-11T10:48:38;8.90;92.40
55634;DHT22;41504;53.162;6.788;2023-02-11T10:53:35;9.00;92.20
55634;DHT22;41504;53.162;6.788;2023-02-11T10:56:02;9.00;92.10
55634;DHT22;41504;53.162;6.788;2023-02-11T10:58:45;9.00;92.20
55634;DHT22;41504;53.162;6.788;2023-02-11T11:01:18;9.00;91.90
55634;DHT22;41504;53.162;6.788;2023-02-11T11:03:47;9.10;91.90
55634;DHT22;41504;53.162;6.788;2023-02-11T11:06:14;9.10;91.80
55634;DHT22;41504;53.162;6.788;2023-02-11T11:08:44;9.10;91.90
55634;DHT22;41504;53.162;6.788;2023-02-11T11:11:13;9.10;91.70
55634;DHT22;41504;53.162;6.788;2023-02-11T11:19:15;9.20;91.50
55634;DHT22;41504;53.162;6.788;2023-02-11T11:21:53;9.20;91.40
55634;DHT22;41504;53.162;6.788;2023-02-11T11:24:22;9.30;91.50
55634;DHT22;41504;53.162;6.788;2023-02-11T11:26:53;9.20;91.40
55634;DHT22;41504;53.162;6.788;2023-02-11T11:29:38;9.30;91.40
55634;DHT22;41504;53.162;6.788;2023-02-11T11:32:15;9.30;91.30
55634;DHT22;41504;53.162;6.788;2023-02-11T11:34:49;9.30;91.20
55634;DHT22;41504;53.162;6.788;2023-02-11T11:37:35;9.30;91.20
55634;DHT22;41504;53.162;6.788;2023-02-11T11:40:24;9.30;91.20
55634;DHT22;41504;53.162;6.788;2023-02-11T11:43:04;9.30;91.30
55634;DHT22;41504;53.162;6.788;2023-02-11T11:45:30;9.30;91.00
55634;DHT22;41504;53.162;6.788;2023-02-11T11:48:17;9.40;91.20
55634;DHT22;41504;53.162;6.788;2023-02-11T11:51:10;9.40;91.00
55634;DHT22;41504;53.162;6.788;2023-02-11T11:53:56;9.40;91.20
55634;DHT22;41504;53.162;6.788;2023-02-11T11:56:26;9.40;91.10
55634;DHT22;41504;53.162;6.788;2023-02-11T11:58:55;9.50;91.00
55634;DHT22;41504;53.162;6.788;2023-02-11T12:04:18;9.50;90.80
55634;DHT22;41504;53.162;6.788;2023-02-11T12:09:48;9.50;90.70
55634;DHT22;41504;53.162;6.788;2023-02-11T12:12:37;9.50;90.70
55634;DHT22;41504;53.162;6.788;2023-02-11T12:26:11;9.60;90.50
55634;DHT22;41504;53.162;6.788;2023-02-11T12:28:51;9.60;90.40
55634;DHT22;41504;53.162;6.788;2023-02-11T12:31:40;9.60;90.60
55634;DHT22;41504;53.162;6.788;2023-02-11T12:34:30;9.60;90.40
55634;DHT22;41504;53.162;6.788;2023-02-11T12:39:57;9.60;90.30
55634;DHT22;41504;53.162;6.788;2023-02-11T12:48:16;9.60;90.40
55634;DHT22;41504;53.162;6.788;2023-02-11T12:56:28;9.60;90.40
55634;DHT22;41504;53.162;6.788;2023-02-11T12:58:58;9.60;90.50
55634;DHT22;41504;53.162;6.788;2023-02-11T13:01:34;9.60;90.40
55634;DHT22;41504;53.162;6.788;2023-02-11T13:04:22;9.60;90.50
55634;DHT22;41504;53.162;6.788;2023-02-11T13:07:12;9.60;90.20
55634;DHT22;41504;53.162;6.788;2023-02-11T13:09:44;9.60;90.40
55634;DHT22;41504;53.162;6.788;2023-02-11T13:12:13;9.60;90.40
55634;DHT22;41504;53.162;6.788;2023-02-11T13:15:02;9.60;90.40
55634;DHT22;41504;53.162;6.788;2023-02-11T13:17:52;9.60;90.40
55634;DHT22;41504;53.162;6.788;2023-02-11T13:20:29;9.60;90.40
55634;DHT22;41504;53.162;6.788;2023-02-11T13:23:29;9.50;90.40
55634;DHT22;41504;53.162;6.788;2023-02-11T13:31:26;9.50;90.60
55634;DHT22;41504;53.162;6.788;2023-02-11T13:33:53;9.50;90.60
55634;DHT22;41504;53.162;6.788;2023-02-11T13:36:26;9.60;90.70
55634;DHT22;41504;53.162;6.788;2023-02-11T13:38:54;9.50;90.70
55634;DHT22;41504;53.162;6.788;2023-02-11T13:41:37;9.50;90.70
55634;DHT22;41504;53.162;6.788;2023-02-11T13:46:59;9.50;90.70
55634;DHT22;41504;53.162;6.788;2023-02-11T13:49:32;9.50;90.50
55634;DHT22;41504;53.162;6.788;2023-02-11T13:52:02;9.50;90.60
55634;DHT22;41504;53.162;6.788;2023-02-11T13:54:37;9.50;90.60
55634;DHT22;41504;53.162;6.788;2023-02-11T13:59:46;9.50;90.60
55634;DHT22;41504;53.162;6.788;2023-02-11T14:02:29;9.50;90.60
55634;DHT22;41504;53.162;6.788;2023-02-11T14:05:25;9.50;90.60
55634;DHT22;41504;53.162;6.788;2023-02-11T14:11:06;9.50;90.50
55634;DHT22;41504;53.162;6.788;2023-02-11T14:19:42;9.40;90.60
55634;DHT22;41504;53.162;6.788;2023-02-11T14:35:31;9.40;90.50
55634;DHT22;41504;53.162;6.788;2023-02-11T14:43:25;9.30;90.60
55634;DHT22;41504;53.162;6.788;2023-02-11T14:45:56;9.30;90.60
55634;DHT22;41504;53.162;6.788;2023-02-11T14:48:36;9.30;90.60
55634;DHT22;41504;53.162;6.788;2023-02-11T14:51:14;9.30;90.70
55634;DHT22;41504;53.162;6.788;2023-02-11T14:53:44;9.30;90.70
55634;DHT22;41504;53.162;6.788;2023-02-11T14:56:22;9.40;90.60
55634;DHT22;41504;53.162;6.788;2023-02-11T14:58:53;9.30;90.60
55634;DHT22;41504;53.162;6.788;2023-02-11T15:01:34;9.30;90.60
55634;DHT22;41504;53.162;6.788;2023-02-11T15:04:03;9.30;90.60
55634;DHT22;41504;53.162;6.788;2023-02-11T15:06:44;9.30;90.60
55634;DHT22;41504;53.162;6.788;2023-02-11T15:09:20;9.30;90.60
55634;DHT22;41504;53.162;6.788;2023-02-11T15:11:53;9.30;90.60
55634;DHT22;41504;53.162;6.788;2023-02-11T15:14:32;9.30;90.70
55634;DHT22;41504;53.162;6.788;2023-02-11T15:17:01;9.30;90.70
55634;DHT22;41504;53.162;6.788;2023-02-11T15:19:31;9.30;90.70
55634;DHT22;41504;53.162;6.788;2023-02-11T15:22:03;9.30;90.70
55634;DHT22;41504;53.162;6.788;2023-02-11T15:24:31;9.30;90.70
55634;DHT22;41504;53.162;6.788;2023-02-11T15:27:11;9.30;90.70
55634;DHT22;41504;53.162;6.788;2023-02-11T15:29:44;9.30;90.70
55634;DHT22;41504;53.162;6.788;2023-02-11T15:32:18;9.30;90.70
55634;DHT22;41504;53.162;6.788;2023-02-11T15:34:45;9.30;90.60
55634;DHT22;41504;53.162;6.788;2023-02-11T15:37:23;9.30;90.90
55634;DHT22;41504;53.162;6.788;2023-02-11T15:39:50;9.30;90.70
55634;DHT22;41504;53.162;6.788;2023-02-11T15:42:24;9.30;90.70
55634;DHT22;41504;53.162;6.788;2023-02-11T15:47:33;9.20;90.60
55634;DHT22;41504;53.162;6.788;2023-02-11T15:49:59;9.20;90.80
55634;DHT22;41504;53.162;6.788;2023-02-11T15:52:26;9.20;90.70
55634;DHT22;41504;53.162;6.788;2023-02-11T15:54:54;9.10;90.70
55634;DHT22;41504;53.162;6.788;2023-02-11T15:57:21;9.10;90.80
55634;DHT22;41504;53.162;6.788;2023-02-11T15:59:52;9.20;90.80
55634;DHT22;41504;53.162;6.788;2023-02-11T16:02:32;9.10;90.80
55634;DHT22;41504;53.162;6.788;2023-02-11T16:05:03;9.10;90.90
55634;DHT22;41504;53.162;6.788;2023-02-11T16:10:03;9.10;90.90
55634;DHT22;41504;53.162;6.788;2023-02-11T16:12:28;9.10;91.00
55634;DHT22;41504;53.162;6.788;2023-02-11T16:14:54;9.10;90.90
55634;DHT22;41504;53.162;6.788;2023-02-11T16:17:28;9.10;91.00
55634;DHT22;41504;53.162;6.788;2023-02-11T16:19:54;9.10;91.00
55634;DHT22;41504;53.162;6.788;2023-02-11T16:22:26;9.00;91.00
55634;DHT22;41504;53.162;6.788;2023-02-11T16:24:56;9.00;91.00
55634;DHT22;41504;53.162;6.788;2023-02-11T16:27:38;9.00;91.10
55634;DHT22;41504;53.162;6.788;2023-02-11T16:30:05;9.00;91.20
55634;DHT22;41504;53.162;6.788;2023-02-11T16:32:31;9.00;91.10
55634;DHT22;41504;53.162;6.788;2023-02-11T16:34:58;9.00;91.20
55634;DHT22;41504;53.162;6.788;2023-02-11T16:37:26;9.00;91.20
55634;DHT22;41504;53.162;6.788;2023-02-11T16:39:55;9.10;91.00
55634;DHT22;41504;53.162;6.788;2023-02-11T16:42:22;9.00;91.00
55634;DHT22;41504;53.162;6.788;2023-02-11T16:44:48;9.00;91.00
55634;DHT22;41504;53.162;6.788;2023-02-11T16:47:25;9.00;90.90
55634;DHT22;41504;53.162;6.788;2023-02-11T16:49:51;9.00;91.00
55634;DHT22;41504;53.162;6.788;2023-02-11T16:52:17;9.00;90.90
55634;DHT22;41504;53.162;6.788;2023-02-11T16:54:45;8.90;91.00
55634;DHT22;41504;53.162;6.788;2023-02-11T16:57:16;8.90;91.00
55634;DHT22;41504;53.162;6.788;2023-02-11T16:59:43;8.90;91.10
55634;DHT22;41504;53.162;6.788;2023-02-11T17:04:40;8.80;91.20
55634;DHT22;41504;53.162;6.788;2023-02-11T17:07:06;8.80;91.20
55634;DHT22;41504;53.162;6.788;2023-02-11T17:09:32;8.80;91.20
55634;DHT22;41504;53.162;6.788;2023-02-11T17:11:57;8.80;91.20
55634;DHT22;41504;53.162;6.788;2023-02-11T17:14:23;8.80;91.30
55634;DHT22;41504;53.162;6.788;2023-02-11T17:16:49;8.80;91.30
55634;DHT22;41504;53.162;6.788;2023-02-11T17:19:16;8.80;91.30
55634;DHT22;41504;53.162;6.788;2023-02-11T17:21:44;8.80;91.30
55634;DHT22;41504;53.162;6.788;2023-02-11T17:24:11;8.80;91.30
55634;DHT22;41504;53.162;6.788;2023-02-11T17:26:39;8.80;91.20
55634;DHT22;41504;53.162;6.788;2023-02-11T17:29:06;8.80;91.30
55634;DHT22;41504;53.162;6.788;2023-02-11T17:31:33;8.80;91.40
55634;DHT22;41504;53.162;6.788;2023-02-11T17:34:03;8.80;91.40
55634;DHT22;41504;53.162;6.788;2023-02-11T17:36:29;8.80;91.40
55634;DHT22;41504;53.162;6.788;2023-02-11T17:39:01;8.80;91.40
55634;DHT22;41504;53.162;6.788;2023-02-11T17:41:27;8.80;91.40
55634;DHT22;41504;53.162;6.788;2023-02-11T17:43:53;8.80;91.40
55634;DHT22;41504;53.162;6.788;2023-02-11T17:46:22;8.80;91.40
55634;DHT22;41504;53.162;6.788;2023-02-11T17:48:47;8.70;91.40
55634;DHT22;41504;53.162;6.788;2023-02-11T17:51:28;8.80;91.40
55634;DHT22;41504;53.162;6.788;2023-02-11T17:53:56;8.80;91.40
55634;DHT22;41504;53.162;6.788;2023-02-11T17:56:23;8.70;91.40
55634;DHT22;41504;53.162;6.788;2023-02-11T17:58:49;8.80;91.40
55634;DHT22;41504;53.162;6.788;2023-02-11T18:01:15;8.70;91.40
55634;DHT22;41504;53.162;6.788;2023-02-11T18:03:41;8.80;91.40
55634;DHT22;41504;53.162;6.788;2023-02-11T18:06:10;8.80;91.40
55634;DHT22;41504;53.162;6.788;2023-02-11T18:08:37;8.80;91.30
55634;DHT22;41504;53.162;6.788;2023-02-11T18:11:03;8.70;91.30
55634;DHT22;41504;53.162;6.788;2023-02-11T18:13:33;8.70;91.40
55634;DHT22;41504;53.162;6.788;2023-02-11T18:16:03;8.70;91.40
55634;DHT22;41504;53.162;6.788;2023-02-11T18:18:29;8.60;91.40
55634;DHT22;41504;53.162;6.788;2023-02-11T18:20:59;8.60;91.40
55634;DHT22;41504;53.162;6.788;2023-02-11T18:23:26;8.60;91.40
55634;DHT22;41504;53.162;6.788;2023-02-11T18:25:52;8.60;91.50